Terminal Aerodrome Forecast
Issued by NWS Chicago, IL

Home | Current Version | Previous Version | Text Only | Print | Product List | Glossary On
Versions: 1 2 3 4 5 6 7 8 9 10 11 12 13 14 15 16 17 18 19 20 21 22 23 24 25 26 27 28 29 30 31 32 33 34 35 36
000
FTUS43 KLOT 041743
TAFRFD
TAF
KRFD 041743Z 0418/0518 36006KT P6SM SCT009 BKN015 OVC120
     FM041900 03009KT P6SM SCT035 BKN200
     FM050000 07009KT P6SM VCSH OVC050
     FM050400 07007KT 4SM -SHRA VCTS OVC025CB PROB30 0505/0509 3SM
      TSRA OVC015CB
     FM051000 10009KT 4SM -SHRA BR OVC010=

USA.gov is the U.S. government's official web portal to all federal, state and local government web resources and services.